createdAt,value
2023-11-18T00:02:55.532Z,5.95
2023-11-18T00:05:58.945Z,6.65
2023-11-18T00:09:02.590Z,10.30
2023-11-18T00:12:07.531Z,6.13
2023-11-18T00:15:13.319Z,9.18
2023-11-18T00:18:19.995Z,7.35
2023-11-18T00:21:23.594Z,8.50
2023-11-18T00:24:35.154Z,5.97
2023-11-18T00:27:39.017Z,6.03
2023-11-18T00:30:46.398Z,6.65
2023-11-18T00:33:50.469Z,7.38
2023-11-18T00:36:55.391Z,8.40
2023-11-18T00:39:59.635Z,6.10
2023-11-18T00:43:03.951Z,6.03
2023-11-18T00:46:14.164Z,6.22
2023-11-18T00:49:18.598Z,7.40
2023-11-18T00:52:23.575Z,7.35
2023-11-18T00:55:32.708Z,5.90
2023-11-18T00:58:40.366Z,6.22
2023-11-18T01:01:47.524Z,5.25
2023-11-18T01:04:54.178Z,7.38
2023-11-18T01:07:57.897Z,6.10
2023-11-18T01:11:01.722Z,5.10
2023-11-18T01:14:09.744Z,4.97
2023-11-18T01:17:16.205Z,5.68
2023-11-18T01:20:23.858Z,8.13
2023-11-18T01:23:28.732Z,6.40
2023-11-18T01:26:33.429Z,5.30
2023-11-18T01:29:38.196Z,6.95
2023-11-18T01:32:47.434Z,12.45
2023-11-18T01:35:53.119Z,6.78
2023-11-18T01:38:58.870Z,9.40
2023-11-18T01:42:05.850Z,9.35
2023-11-18T01:45:12.853Z,5.68
2023-11-18T01:48:23.062Z,7.10
2023-11-18T01:51:27.770Z,11.07
2023-11-18T01:54:33.359Z,6.05
2023-11-18T01:57:43.904Z,5.82
2023-11-18T02:00:47.366Z,6.60
2023-11-18T02:03:54.524Z,7.30
2023-11-18T02:06:58.389Z,7.78
2023-11-18T02:10:03.909Z,6.05
2023-11-18T02:13:09.403Z,7.75
2023-11-18T02:16:13.278Z,5.20
2023-11-18T02:19:25.391Z,5.90
2023-11-18T02:22:29.499Z,5.97
2023-11-18T02:25:35.885Z,4.75
2023-11-18T02:28:40.825Z,5.03
2023-11-18T02:31:45.675Z,5.03
2023-11-18T02:34:54.697Z,7.57
2023-11-18T02:37:59.662Z,6.72
2023-11-18T02:41:06.327Z,6.35
2023-11-18T02:44:12.133Z,9.10
2023-11-18T02:47:17.189Z,7.88
2023-11-18T02:50:21.788Z,6.15
2023-11-18T02:53:27.013Z,5.90
2023-11-18T02:56:30.306Z,26.80
2023-11-18T02:59:35.103Z,7.53
2023-11-18T03:02:40.542Z,5.40
2023-11-18T03:05:44.172Z,7.03
2023-11-18T03:08:47.929Z,7.90
2023-11-18T03:11:52.381Z,5.75
2023-11-18T03:14:58.644Z,5.30
2023-11-18T03:18:02.180Z,7.45
2023-11-18T03:21:07.650Z,6.80
2023-11-18T03:24:11.586Z,4.75
2023-11-18T03:27:15.255Z,6.68
2023-11-18T03:30:19.959Z,6.60
2023-11-18T03:33:23.311Z,9.80
2023-11-18T03:36:26.655Z,6.60
2023-11-18T03:39:30.038Z,6.30
2023-11-18T03:42:33.466Z,7.38
2023-11-18T03:45:38.090Z,6.50
2023-11-18T03:48:41.633Z,7.10
2023-11-18T03:51:44.950Z,5.88
2023-11-18T03:54:48.364Z,6.45
2023-11-18T03:57:51.860Z,8.68
2023-11-18T04:00:58.453Z,6.35
2023-11-18T04:04:02.100Z,6.40
2023-11-18T04:07:05.711Z,5.70
2023-11-18T04:10:11.244Z,6.43
2023-11-18T04:13:14.967Z,6.53
2023-11-18T04:16:20.184Z,5.60
2023-11-18T04:19:23.780Z,8.65
2023-11-18T04:22:27.142Z,7.47
2023-11-18T04:25:30.689Z,6.25
2023-11-18T04:28:34.079Z,6.75
2023-11-18T04:31:39.516Z,8.02
2023-11-18T04:34:43.639Z,8.43
2023-11-18T04:37:47.369Z,6.68
2023-11-18T04:40:50.768Z,5.70
2023-11-18T04:43:54.568Z,7.85
2023-11-18T04:46:59.727Z,5.35
2023-11-18T04:50:04.436Z,8.48
2023-11-18T04:53:09.594Z,6.30
2023-11-18T04:56:13.037Z,8.52
2023-11-18T04:59:16.628Z,6.13
2023-11-18T05:02:21.582Z,6.78
2023-11-18T05:05:24.983Z,6.18
2023-11-18T05:08:28.385Z,6.38
2023-11-18T05:11:31.850Z,6.70
2023-11-18T05:14:35.193Z,6.22
2023-11-18T05:17:40.159Z,8.30
2023-11-18T05:20:43.603Z,8.05
2023-11-18T05:23:46.908Z,6.00
2023-11-18T05:26:50.388Z,6.35
2023-11-18T05:29:56.147Z,7.03
2023-11-18T05:33:01.883Z,7.82
2023-11-18T05:36:06.931Z,7.15
2023-11-18T05:39:21.217Z,6.68
2023-11-18T05:42:24.914Z,12.07
2023-11-18T05:45:33.271Z,6.85
2023-11-18T05:48:38.660Z,6.22
2023-11-18T05:51:47.840Z,5.72
2023-11-18T05:54:51.415Z,7.93
2023-11-18T05:57:54.693Z,10.98
2023-11-18T06:00:57.974Z,5.30
2023-11-18T06:04:02.950Z,7.65
2023-11-18T06:07:07.236Z,7.47
2023-11-18T06:10:10.824Z,6.75
2023-11-18T06:13:14.769Z,6.75
2023-11-18T06:16:19.791Z,6.03
2023-11-18T06:19:24.814Z,6.35
2023-11-18T06:22:28.306Z,9.50
2023-11-18T06:25:32.682Z,8.10
2023-11-18T06:28:38.225Z,6.75
2023-11-18T06:31:42.213Z,6.13
2023-11-18T06:34:48.023Z,7.40
2023-11-18T06:37:51.432Z,5.55
2023-11-18T06:40:54.799Z,5.13
2023-11-18T06:44:03.994Z,8.48
2023-11-18T06:47:08.145Z,6.20
2023-11-18T06:50:15.314Z,7.43
2023-11-18T06:53:18.904Z,6.53
2023-11-18T06:56:22.502Z,6.00
2023-11-18T06:59:26.027Z,4.13
2023-11-18T07:02:29.791Z,5.20
2023-11-18T07:05:34.531Z,6.95
2023-11-18T07:08:38.106Z,5.75
2023-11-18T07:11:42.558Z,8.00
2023-11-18T07:14:45.937Z,6.88
2023-11-18T07:17:55.296Z,4.97
2023-11-18T07:21:04.348Z,7.00
2023-11-18T07:24:08.470Z,7.85
2023-11-18T07:27:12.464Z,6.50
2023-11-18T07:30:16.034Z,9.07
2023-11-18T07:33:26.091Z,6.35
2023-11-18T07:36:30.719Z,7.40
2023-11-18T07:39:45.211Z,7.57
2023-11-18T07:42:49.812Z,6.32
2023-11-18T07:45:54.319Z,8.27
2023-11-18T07:48:57.934Z,7.93
2023-11-18T07:52:02.685Z,8.25
2023-11-18T07:55:06.414Z,10.63
2023-11-18T07:58:11.608Z,6.75
2023-11-18T08:01:17.207Z,8.25
2023-11-18T08:04:21.947Z,8.07
2023-11-18T08:07:27.026Z,9.18
2023-11-18T08:10:33.882Z,7.53
2023-11-18T08:13:37.522Z,8.95
2023-11-18T08:16:40.990Z,7.32
2023-11-18T08:19:44.413Z,6.50
2023-11-18T08:22:49.135Z,7.25
2023-11-18T08:25:52.885Z,7.55
2023-11-18T08:28:56.478Z,10.18
2023-11-18T08:32:02.822Z,9.45
2023-11-18T08:35:07.684Z,12.32
2023-11-18T08:38:15.806Z,10.45
2023-11-18T08:41:21.191Z,9.27
2023-11-18T08:44:25.186Z,9.82
2023-11-18T08:47:34.237Z,8.70
2023-11-18T08:50:41.006Z,8.15
2023-11-18T08:53:46.828Z,9.02
2023-11-18T08:56:52.096Z,12.48
2023-11-18T08:59:59.952Z,9.65
2023-11-18T09:03:06.584Z,11.48
2023-11-18T09:06:18.716Z,9.73
2023-11-18T09:09:28.726Z,7.75
2023-11-18T09:12:40.408Z,8.98
2023-11-18T09:15:44.192Z,9.95
2023-11-18T09:18:47.701Z,11.45
2023-11-18T09:21:52.732Z,7.55
2023-11-18T09:24:57.457Z,8.48
2023-11-18T09:28:01.450Z,8.98
2023-11-18T09:31:04.980Z,7.35
2023-11-18T09:34:16.700Z,7.32
2023-11-18T09:37:21.625Z,8.05
2023-11-18T09:40:30.609Z,5.75
2023-11-18T09:43:37.416Z,8.93
2023-11-18T09:46:45.045Z,6.45
2023-11-18T09:49:52.875Z,5.53
2023-11-18T09:53:00.658Z,3.55
2023-11-18T09:56:10.560Z,5.57
2023-11-18T09:59:18.045Z,6.53
2023-11-18T10:02:23.266Z,4.65
2023-11-18T10:05:28.431Z,5.80
2023-11-18T10:08:32.315Z,8.00
2023-11-18T10:11:42.305Z,5.30
2023-11-18T10:14:45.756Z,5.68
2023-11-18T10:17:58.735Z,8.13
2023-11-18T10:21:02.256Z,6.28
2023-11-18T10:24:11.632Z,5.55
2023-11-18T10:27:17.248Z,5.40
2023-11-18T10:30:22.837Z,5.53
2023-11-18T10:33:31.336Z,5.13
2023-11-18T10:36:37.501Z,5.03
2023-11-18T10:39:41.967Z,7.40
2023-11-18T10:42:49.964Z,3.97
2023-11-18T10:45:54.738Z,3.75
2023-11-18T10:48:59.131Z,5.32
2023-11-18T10:52:05.210Z,5.32
2023-11-18T10:55:13.753Z,8.10
2023-11-18T10:58:18.976Z,3.38
2023-11-18T11:01:30.483Z,5.70
2023-11-18T11:04:45.581Z,5.32
2023-11-18T11:07:50.192Z,3.83
2023-11-18T11:10:58.414Z,4.45
2023-11-18T11:14:03.692Z,4.28
2023-11-18T11:17:12.560Z,4.57
2023-11-18T11:20:24.681Z,5.28
2023-11-18T11:23:36.256Z,3.65
2023-11-18T11:26:45.175Z,4.15
2023-11-18T11:29:54.321Z,2.95
2023-11-18T11:33:04.225Z,3.92
2023-11-18T11:36:12.525Z,2.75
2023-11-18T11:39:19.214Z,5.10
2023-11-18T11:42:25.160Z,3.63
2023-11-18T11:45:31.582Z,3.05
2023-11-18T11:48:37.302Z,2.90
2023-11-18T11:51:49.726Z,3.10
2023-11-18T11:54:59.580Z,4.53
2023-11-18T11:58:04.003Z,4.03
2023-11-18T12:01:24.674Z,6.07
2023-11-18T12:04:30.210Z,3.75
2023-11-18T12:07:39.793Z,4.10
2023-11-18T12:10:43.129Z,3.55
2023-11-18T12:14:10.786Z,5.40
2023-11-18T12:17:22.405Z,2.92
2023-11-18T12:20:43.123Z,2.88
2023-11-18T12:24:16.586Z,2.63
2023-11-18T12:27:44.896Z,1.92
2023-11-18T12:31:06.410Z,3.65
2023-11-18T12:34:12.125Z,2.63
2023-11-18T12:37:26.578Z,2.20
2023-11-18T12:40:51.349Z,2.08
2023-11-18T12:44:07.615Z,1.83
2023-11-18T12:47:19.576Z,2.40
2023-11-18T12:50:26.052Z,2.88
2023-11-18T12:53:30.101Z,1.85
2023-11-18T12:56:34.067Z,2.55
2023-11-18T12:59:38.558Z,3.83
2023-11-18T13:02:43.174Z,3.75
2023-11-18T13:05:49.757Z,3.20
2023-11-18T13:08:53.171Z,3.95
2023-11-18T13:11:59.713Z,3.28
2023-11-18T13:15:04.872Z,3.20
2023-11-18T13:18:08.415Z,4.30
2023-11-18T13:21:15.972Z,3.55
2023-11-18T13:24:20.295Z,3.90
2023-11-18T13:27:24.070Z,3.67
2023-11-18T13:30:27.341Z,4.32
2023-11-18T13:33:30.844Z,2.78
2023-11-18T13:36:35.603Z,1.77
2023-11-18T13:39:39.570Z,4.05
2023-11-18T13:42:43.892Z,3.25
2023-11-18T13:45:56.339Z,4.40
2023-11-18T13:49:01.076Z,2.85
2023-11-18T13:52:08.105Z,4.00
2023-11-18T13:55:11.693Z,2.15
2023-11-18T13:58:16.691Z,3.03
2023-11-18T14:01:20.153Z,2.45
2023-11-18T14:04:25.540Z,2.67
2023-11-18T14:07:31.587Z,2.88
2023-11-18T14:10:37.366Z,2.75
2023-11-18T14:13:41.017Z,2.80
2023-11-18T14:16:44.586Z,3.10
2023-11-18T14:19:48.003Z,3.90
2023-11-18T14:22:55.786Z,2.85
2023-11-18T14:25:59.387Z,4.90
2023-11-18T14:29:03.589Z,9.88
2023-11-18T14:32:07.311Z,2.58
2023-11-18T14:35:12.644Z,1.92
2023-11-18T14:38:19.741Z,2.55
2023-11-18T14:41:29.734Z,1.90
2023-11-18T14:44:37.769Z,6.15
2023-11-18T14:47:48.879Z,2.72
2023-11-18T14:50:52.293Z,3.33
2023-11-18T14:53:57.233Z,5.30
2023-11-18T14:57:01.632Z,2.75
2023-11-18T15:00:08.562Z,2.70
2023-11-18T15:03:12.197Z,2.13
2023-11-18T15:06:17.181Z,3.28
2023-11-18T15:09:24.981Z,4.45
2023-11-18T15:12:28.501Z,3.08
2023-11-18T15:15:34.613Z,4.55
2023-11-18T15:18:40.004Z,3.60
2023-11-18T15:21:43.427Z,3.83
2023-11-18T15:24:48.616Z,3.40
2023-11-18T15:27:52.177Z,5.60
2023-11-18T15:30:55.672Z,4.82
2023-11-18T15:33:59.143Z,4.82
2023-11-18T15:37:04.319Z,6.50
2023-11-18T15:40:12.016Z,6.40
2023-11-18T15:43:15.529Z,6.65
2023-11-18T15:46:19.189Z,5.10
2023-11-18T15:49:22.815Z,7.00
2023-11-18T15:52:26.132Z,10.80
2023-11-18T15:55:32.194Z,3.70
2023-11-18T15:58:36.888Z,8.48
2023-11-18T16:01:40.300Z,5.28
2023-11-18T16:04:43.727Z,3.83
2023-11-18T16:07:47.425Z,4.13
2023-11-18T16:10:55.077Z,4.00
2023-11-18T16:14:00.221Z,6.68
2023-11-18T16:17:03.875Z,4.22
2023-11-18T16:20:08.046Z,5.55
2023-11-18T16:23:13.223Z,11.80
2023-11-18T16:26:19.097Z,8.73
2023-11-18T16:29:25.796Z,4.97
2023-11-18T16:32:30.285Z,4.38
2023-11-18T16:35:33.758Z,3.92
2023-11-18T16:38:37.348Z,5.22
2023-11-18T16:41:45.918Z,3.75
2023-11-18T16:44:50.222Z,4.57
2023-11-18T16:47:55.051Z,5.13
2023-11-18T16:50:59.057Z,3.92
2023-11-18T16:54:15.185Z,3.97
2023-11-18T16:57:20.073Z,3.28
2023-11-18T17:00:24.820Z,6.35
2023-11-18T17:03:30.854Z,5.55
2023-11-18T17:06:35.973Z,3.25
2023-11-18T17:09:41.945Z,3.70
2023-11-18T17:12:48.715Z,4.97
2023-11-18T17:15:52.137Z,4.40
2023-11-18T17:18:57.037Z,11.85
2023-11-18T17:22:00.523Z,9.15
2023-11-18T17:25:14.544Z,5.15
2023-11-18T17:28:21.878Z,3.55
2023-11-18T17:31:26.658Z,4.00
2023-11-18T17:34:30.756Z,3.97
2023-11-18T17:37:38.274Z,5.00
2023-11-18T17:40:42.009Z,10.70
2023-11-18T17:43:46.931Z,16.08
2023-11-18T17:46:50.406Z,12.50
2023-11-18T17:49:55.108Z,9.63
2023-11-18T17:53:00.461Z,6.47
2023-11-18T17:56:06.607Z,9.10
2023-11-18T17:59:11.670Z,7.30
2023-11-18T18:02:16.460Z,13.27
2023-11-18T18:05:20.408Z,14.00
2023-11-18T18:08:24.157Z,8.05
2023-11-18T18:11:28.784Z,8.45
2023-11-18T18:14:36.097Z,11.23
2023-11-18T18:17:40.520Z,11.90
2023-11-18T18:20:51.632Z,13.73
2023-11-18T18:23:57.292Z,10.27
2023-11-18T18:27:02.073Z,10.15
2023-11-18T18:30:07.922Z,8.30
2023-11-18T18:33:11.526Z,8.05
2023-11-18T18:36:15.921Z,12.13
2023-11-18T18:39:19.825Z,8.73
2023-11-18T18:42:23.764Z,8.93
2023-11-18T18:45:28.834Z,8.70
2023-11-18T18:48:34.333Z,8.40
2023-11-18T18:51:39.874Z,7.90
2023-11-18T18:54:47.767Z,6.45
2023-11-18T18:57:51.338Z,7.00
2023-11-18T19:00:56.261Z,7.20
2023-11-18T19:04:00.502Z,12.70
2023-11-18T19:07:04.873Z,10.73
2023-11-18T19:10:10.990Z,11.50
2023-11-18T19:13:15.014Z,13.05
2023-11-18T19:16:19.762Z,9.88
2023-11-18T19:19:27.354Z,6.55
2023-11-18T19:22:34.517Z,10.80
2023-11-18T19:25:38.203Z,16.20
2023-11-18T19:28:41.702Z,13.23
2023-11-18T19:31:46.529Z,7.80
2023-11-18T19:34:50.527Z,8.57
2023-11-18T19:37:57.770Z,12.52
2023-11-18T19:41:01.159Z,9.00
2023-11-18T19:44:05.509Z,12.18
2023-11-18T19:47:12.265Z,8.88
2023-11-18T19:50:27.108Z,9.27
2023-11-18T19:53:31.098Z,13.05
2023-11-18T19:56:34.957Z,10.18
2023-11-18T19:59:38.935Z,10.18
2023-11-18T20:02:46.738Z,11.10
2023-11-18T20:05:50.911Z,10.43
2023-11-18T20:08:54.697Z,11.77
2023-11-18T20:15:08.411Z,11.70
2023-11-18T20:18:13.542Z,13.60
2023-11-18T20:21:17.108Z,12.65
2023-11-18T20:24:23.617Z,9.63
2023-11-18T20:27:27.628Z,14.27
2023-11-18T20:30:31.373Z,19.15
2023-11-18T20:33:42.262Z,12.50
2023-11-18T20:36:47.607Z,12.68
2023-11-18T20:39:53.835Z,14.93
2023-11-18T20:42:57.401Z,12.85
2023-11-18T20:46:00.809Z,18.33
2023-11-18T20:49:06.527Z,12.55
2023-11-18T20:52:11.298Z,11.20
2023-11-18T20:55:15.226Z,12.15
2023-11-18T20:58:20.015Z,11.82
2023-11-18T21:01:23.562Z,12.63
2023-11-18T21:04:31.445Z,11.43
2023-11-18T21:07:37.355Z,11.95
2023-11-18T21:10:42.226Z,12.07
2023-11-18T21:13:45.921Z,12.48
2023-11-18T21:16:49.252Z,13.82
2023-11-18T21:19:57.343Z,11.77
2023-11-18T21:23:00.778Z,12.70
2023-11-18T21:26:04.876Z,9.38
2023-11-18T21:29:08.313Z,13.45
2023-11-18T21:32:12.911Z,12.25
2023-11-18T21:35:21.184Z,8.82
2023-11-18T21:38:25.853Z,12.18
2023-11-18T21:41:29.344Z,11.60
2023-11-18T21:44:32.729Z,11.93
2023-11-18T21:47:43.686Z,12.90
2023-11-18T21:50:48.645Z,11.73
2023-11-18T21:53:52.357Z,13.13
2023-11-18T21:56:55.785Z,13.15
2023-11-18T21:59:59.122Z,14.10
2023-11-18T22:03:04.134Z,14.63
2023-11-18T22:06:17.511Z,11.35
2023-11-18T22:09:20.910Z,9.13
2023-11-18T22:12:24.616Z,11.93
2023-11-18T22:15:27.929Z,10.00
2023-11-18T22:18:31.387Z,14.00
2023-11-18T22:21:36.041Z,12.40
2023-11-18T22:24:39.431Z,11.40
2023-11-18T22:27:42.768Z,13.80
2023-11-18T22:30:48.897Z,12.00
2023-11-18T22:33:56.700Z,10.90
2023-11-18T22:37:01.535Z,10.15
2023-11-18T22:40:09.580Z,14.32
2023-11-18T22:43:13.126Z,11.93
2023-11-18T22:46:18.130Z,15.02
2023-11-18T22:49:23.956Z,11.90
2023-11-18T22:52:28.833Z,8.57
2023-11-18T22:55:32.148Z,10.05
2023-11-18T22:58:37.798Z,8.80
2023-11-18T23:01:44.169Z,9.00
2023-11-18T23:04:47.642Z,8.95
2023-11-18T23:07:52.466Z,11.57
2023-11-18T23:10:56.407Z,12.02
2023-11-18T23:13:59.936Z,11.55
2023-11-18T23:20:13.592Z,7.45
2023-11-18T23:23:18.949Z,9.55
2023-11-18T23:26:22.239Z,8.60
2023-11-18T23:29:25.479Z,9.20
2023-11-18T23:32:29.211Z,11.30
2023-11-18T23:35:34.087Z,9.00
2023-11-18T23:38:39.113Z,9.43
2023-11-18T23:41:42.498Z,8.45
2023-11-18T23:44:46.017Z,7.38
2023-11-18T23:47:51.960Z,7.07
2023-11-18T23:50:56.077Z,6.55
2023-11-18T23:54:00.912Z,5.78
2023-11-18T23:57:05.712Z,7.35
